createdAt,value
2019-05-29T00:00:36.314Z,9.88
2019-05-29T00:03:06.139Z,9.86
2019-05-29T00:05:34.868Z,9.88
2019-05-29T00:08:03.309Z,9.80
2019-05-29T00:10:31.754Z,9.76
2019-05-29T00:13:00.233Z,9.72
2019-05-29T00:15:28.729Z,9.76
2019-05-29T00:17:57.175Z,9.68
2019-05-29T00:20:25.604Z,9.65
2019-05-29T00:22:54.069Z,9.66
2019-05-29T00:25:22.534Z,9.65
2019-05-29T00:27:50.996Z,9.64
2019-05-29T00:30:19.530Z,9.64
2019-05-29T00:32:47.984Z,9.65
2019-05-29T00:35:16.489Z,9.60
2019-05-29T00:37:44.989Z,9.60
2019-05-29T00:40:14.961Z,9.59
2019-05-29T00:42:43.654Z,9.55
2019-05-29T00:45:13.385Z,9.44
2019-05-29T00:47:41.990Z,9.50
2019-05-29T00:50:10.485Z,9.46
2019-05-29T00:52:39.004Z,9.41
2019-05-29T00:55:08.597Z,9.35
2019-05-29T00:57:37.307Z,9.37
2019-05-29T01:00:06.084Z,9.33
2019-05-29T01:02:34.653Z,9.31
2019-05-29T01:05:03.077Z,9.27
2019-05-29T01:07:31.533Z,9.22
2019-05-29T01:09:59.986Z,9.21
2019-05-29T01:12:28.458Z,9.16
2019-05-29T01:14:56.919Z,9.20
2019-05-29T01:17:25.423Z,9.16
2019-05-29T01:19:54.418Z,9.15
2019-05-29T01:22:22.885Z,9.11
2019-05-29T01:24:51.361Z,9.09
2019-05-29T01:27:20.838Z,9.08
2019-05-29T01:29:49.441Z,9.04
2019-05-29T01:32:17.865Z,9.01
2019-05-29T01:34:46.325Z,8.93
2019-05-29T01:37:16.010Z,8.96
2019-05-29T01:39:44.572Z,8.93
2019-05-29T01:42:13.021Z,8.89
2019-05-29T01:44:41.457Z,8.87
2019-05-29T01:47:09.921Z,8.83
2019-05-29T01:49:38.353Z,8.85
2019-05-29T01:52:06.852Z,8.82
2019-05-29T01:54:35.296Z,8.82
2019-05-29T01:57:04.120Z,8.74
2019-05-29T01:59:34.967Z,8.76
2019-05-29T02:02:03.413Z,8.81
2019-05-29T02:04:31.893Z,8.72
2019-05-29T02:07:00.360Z,8.71
2019-05-29T02:09:28.849Z,8.74
2019-05-29T02:11:57.329Z,8.71
2019-05-29T02:14:26.888Z,8.78
2019-05-29T02:16:55.597Z,8.78
2019-05-29T02:19:24.115Z,8.77
2019-05-29T02:21:52.627Z,8.74
2019-05-29T02:24:21.248Z,8.75
2019-05-29T02:26:49.672Z,8.71
2019-05-29T02:29:18.613Z,8.74
2019-05-29T02:31:47.238Z,8.65
2019-05-29T02:34:15.674Z,8.67
2019-05-29T02:36:44.134Z,8.65
2019-05-29T02:39:12.571Z,8.70
2019-05-29T02:41:41.048Z,8.68
2019-05-29T02:44:09.511Z,8.63
2019-05-29T02:46:38.037Z,8.97
2019-05-29T02:49:06.937Z,8.79
2019-05-29T02:51:35.385Z,8.66
2019-05-29T02:54:04.146Z,8.55
2019-05-29T02:56:35.570Z,8.52
2019-05-29T02:59:04.041Z,8.52
2019-05-29T03:01:32.522Z,8.39
2019-05-29T03:04:00.573Z,8.48
2019-05-29T03:06:28.321Z,8.52
2019-05-29T03:08:56.049Z,8.44
2019-05-29T03:11:25.191Z,8.41
2019-05-29T03:13:54.477Z,8.29
2019-05-29T03:16:35.591Z,8.17
2019-05-29T03:19:03.264Z,8.34
2019-05-29T03:21:32.479Z,8.27
2019-05-29T03:24:01.789Z,8.24
2019-05-29T03:26:30.753Z,8.27
2019-05-29T03:28:58.781Z,8.27
2019-05-29T03:31:30.947Z,8.23
2019-05-29T03:33:56.594Z,8.28
2019-05-29T03:36:26.883Z,8.28
2019-05-29T03:38:54.072Z,8.26
2019-05-29T03:41:21.734Z,8.21
2019-05-29T03:43:49.389Z,8.21
2019-05-29T03:46:44.351Z,8.17
2019-05-29T03:49:26.723Z,8.15
2019-05-29T03:51:54.598Z,8.14
2019-05-29T03:54:22.261Z,8.13
2019-05-29T03:57:09.234Z,8.15
2019-05-29T03:59:37.419Z,8.12
2019-05-29T04:02:05.265Z,8.13
2019-05-29T04:04:33.604Z,8.17
2019-05-29T04:07:02.342Z,8.23
2019-05-29T04:09:31.313Z,8.27
2019-05-29T04:11:59.924Z,8.33
2019-05-29T04:14:29.319Z,8.42
2019-05-29T04:17:00.007Z,8.85
2019-05-29T04:19:27.759Z,8.82
2019-05-29T04:21:57.881Z,8.83
2019-05-29T04:24:27.918Z,8.88
2019-05-29T04:26:56.523Z,8.95
2019-05-29T04:29:24.972Z,9.05
2019-05-29T04:31:53.457Z,9.14
2019-05-29T04:34:22.948Z,9.27
2019-05-29T04:36:51.468Z,9.35
2019-05-29T04:39:20.045Z,9.55
2019-05-29T04:41:48.765Z,9.69
2019-05-29T04:44:17.627Z,9.81
2019-05-29T04:46:46.080Z,9.98
2019-05-29T04:49:14.552Z,10.07
2019-05-29T04:51:43.024Z,10.22
2019-05-29T04:54:11.546Z,10.35
2019-05-29T04:56:40.345Z,10.48
2019-05-29T04:59:08.829Z,10.56
2019-05-29T05:01:37.310Z,10.64
2019-05-29T05:04:05.781Z,10.74
2019-05-29T05:06:35.304Z,10.83
2019-05-29T05:09:05.101Z,10.95
2019-05-29T05:11:33.624Z,11.10
2019-05-29T05:14:02.105Z,11.22
2019-05-29T05:16:31.656Z,11.32
2019-05-29T05:19:00.375Z,11.37
2019-05-29T05:21:29.812Z,11.40
2019-05-29T05:23:58.452Z,11.47
2019-05-29T05:26:26.901Z,11.57
2019-05-29T05:28:55.520Z,11.62
2019-05-29T05:31:24.057Z,11.73
2019-05-29T05:34:11.856Z,11.84
2019-05-29T05:36:41.046Z,11.94
2019-05-29T05:39:09.763Z,12.00
2019-05-29T05:41:38.974Z,12.04
2019-05-29T05:44:07.595Z,12.16
2019-05-29T05:46:37.149Z,12.30
2019-05-29T05:49:05.677Z,12.37
2019-05-29T05:51:38.140Z,12.53
2019-05-29T05:54:04.356Z,12.59
2019-05-29T05:56:33.659Z,12.72
2019-05-29T05:59:02.289Z,12.61
2019-05-29T06:01:31.757Z,12.59
2019-05-29T06:04:00.411Z,12.64
2019-05-29T06:06:28.909Z,12.76
2019-05-29T06:08:57.389Z,12.74
2019-05-29T06:11:25.885Z,12.90
2019-05-29T06:13:54.776Z,12.95
2019-05-29T06:16:23.286Z,13.16
2019-05-29T06:18:51.751Z,13.17
2019-05-29T06:21:21.232Z,13.23
2019-05-29T06:23:49.731Z,13.37
2019-05-29T06:26:18.196Z,13.38
2019-05-29T06:28:46.689Z,13.41
2019-05-29T06:31:15.137Z,13.53
2019-05-29T06:33:44.122Z,13.54
2019-05-29T06:36:13.003Z,13.63
2019-05-29T06:38:42.216Z,13.65
2019-05-29T06:41:10.898Z,13.79
2019-05-29T06:43:39.966Z,13.81
2019-05-29T06:46:08.573Z,14.05
2019-05-29T06:48:46.332Z,14.12
2019-05-29T06:51:07.305Z,14.06
2019-05-29T06:53:35.830Z,14.13
2019-05-29T06:56:04.410Z,14.12
2019-05-29T06:58:32.934Z,14.24
2019-05-29T07:01:01.427Z,14.41
2019-05-29T07:03:29.878Z,14.59
2019-05-29T07:05:58.346Z,14.75
2019-05-29T07:08:48.276Z,14.64
2019-05-29T07:11:16.375Z,14.85
2019-05-29T07:13:47.491Z,14.92
2019-05-29T07:16:15.035Z,15.02
2019-05-29T07:19:20.515Z,15.08
2019-05-29T07:21:13.742Z,15.02
2019-05-29T07:23:45.160Z,15.09
2019-05-29T07:26:12.478Z,15.10
2019-05-29T07:28:58.876Z,15.26
2019-05-29T07:31:11.171Z,15.36
2019-05-29T07:33:39.635Z,15.40
2019-05-29T07:36:08.189Z,15.38
2019-05-29T07:38:37.720Z,15.37
2019-05-29T07:41:06.419Z,15.13
2019-05-29T07:43:34.888Z,15.25
2019-05-29T07:46:03.385Z,15.46
2019-05-29T07:48:31.881Z,15.56
2019-05-29T07:51:07.007Z,15.59
2019-05-29T07:53:33.606Z,15.77
2019-05-29T07:56:03.838Z,15.80
2019-05-29T07:58:32.282Z,15.78
2019-05-29T08:01:11.690Z,15.73
2019-05-29T08:03:31.062Z,15.80
2019-05-29T08:06:01.700Z,15.91
2019-05-29T08:08:30.342Z,16.01
2019-05-29T08:10:58.862Z,16.12
2019-05-29T08:13:27.353Z,15.96
2019-05-29T08:16:02.548Z,16.19
2019-05-29T08:18:25.992Z,16.22
2019-05-29T08:20:54.547Z,16.36
2019-05-29T08:23:23.006Z,16.46
2019-05-29T08:25:51.902Z,16.47
2019-05-29T08:28:21.081Z,16.40
2019-05-29T08:30:54.109Z,16.47
2019-05-29T08:33:20.103Z,16.69
2019-05-29T08:35:55.664Z,16.87
2019-05-29T08:38:19.026Z,16.74
2019-05-29T08:40:47.596Z,16.78
2019-05-29T08:43:16.070Z,16.93
2019-05-29T08:45:45.507Z,17.23
2019-05-29T08:48:14.178Z,17.05
2019-05-29T08:50:43.628Z,17.09
2019-05-29T08:53:12.399Z,16.99
2019-05-29T08:55:41.986Z,16.98
2019-05-29T08:58:10.576Z,17.08
2019-05-29T09:00:39.044Z,17.20
2019-05-29T09:03:07.472Z,17.25
2019-05-29T09:06:08.339Z,17.14
2019-05-29T09:08:25.756Z,17.19
2019-05-29T09:10:54.596Z,17.39
2019-05-29T09:13:23.160Z,17.54
2019-05-29T09:15:51.881Z,17.52
2019-05-29T09:18:21.720Z,17.53
2019-05-29T09:21:02.784Z,17.52
2019-05-29T09:23:20.970Z,17.63
2019-05-29T09:25:49.891Z,17.77
2019-05-29T09:28:19.155Z,17.69
2019-05-29T09:30:47.634Z,17.94
2019-05-29T09:33:18.746Z,17.64
2019-05-29T09:35:46.657Z,18.11
2019-05-29T09:38:15.721Z,17.99
2019-05-29T09:40:45.203Z,18.12
2019-05-29T09:43:15.041Z,18.23
2019-05-29T09:45:43.844Z,18.27
2019-05-29T09:48:12.301Z,18.24
2019-05-29T09:50:50.285Z,18.48
2019-05-29T09:53:10.939Z,18.28
2019-05-29T09:55:39.426Z,18.51
2019-05-29T09:58:07.880Z,18.56
2019-05-29T10:00:36.324Z,18.82
2019-05-29T10:03:04.799Z,18.59
2019-05-29T10:05:33.274Z,18.67
2019-05-29T10:08:02.398Z,18.97
2019-05-29T10:10:32.191Z,19.03
2019-05-29T10:13:02.722Z,19.11
2019-05-29T10:15:31.177Z,19.01
2019-05-29T10:18:00.613Z,19.03
2019-05-29T10:20:29.285Z,19.32
2019-05-29T10:22:58.943Z,19.54
2019-05-29T10:25:27.609Z,19.72
2019-05-29T10:27:58.841Z,19.69
2019-05-29T10:30:48.163Z,19.83
2019-05-29T10:33:16.794Z,19.71
2019-05-29T10:35:46.674Z,19.29
2019-05-29T10:38:15.734Z,19.42
2019-05-29T10:40:47.153Z,19.37
2019-05-29T10:43:14.568Z,19.30
2019-05-29T10:45:43.510Z,19.72
2019-05-29T10:48:12.164Z,19.72
2019-05-29T10:50:40.617Z,19.53
2019-05-29T10:53:09.100Z,19.45
2019-05-29T10:55:37.602Z,19.29
2019-05-29T10:58:06.083Z,19.27
2019-05-29T11:00:38.593Z,19.04
2019-05-29T11:03:05.120Z,19.28
2019-05-29T11:05:33.594Z,19.51
2019-05-29T11:08:02.130Z,19.67
2019-05-29T11:10:30.613Z,19.63
2019-05-29T11:12:59.135Z,19.91
2019-05-29T11:15:27.627Z,19.85
2019-05-29T11:17:57.299Z,19.99
2019-05-29T11:20:27.498Z,19.86
2019-05-29T11:22:55.962Z,19.65
2019-05-29T11:25:27.542Z,19.80
2019-05-29T11:27:54.883Z,19.80
2019-05-29T11:30:23.439Z,19.85
2019-05-29T11:32:54.637Z,20.20
2019-05-29T11:35:22.177Z,19.94
2019-05-29T11:37:54.668Z,19.81
2019-05-29T11:40:23.274Z,19.97
2019-05-29T11:42:52.809Z,19.65
2019-05-29T11:45:21.456Z,19.72
2019-05-29T11:47:51.470Z,19.95
2019-05-29T11:50:20.439Z,20.12
2019-05-29T11:52:50.196Z,20.31
2019-05-29T11:55:18.881Z,20.36
2019-05-29T11:57:47.361Z,20.47
2019-05-29T12:00:20.104Z,19.86
2019-05-29T12:02:46.143Z,19.94
2019-05-29T12:05:14.640Z,19.97
2019-05-29T12:07:43.121Z,20.29
2019-05-29T12:10:12.718Z,20.48
2019-05-29T12:12:41.257Z,20.40
2019-05-29T12:15:14.464Z,20.73
2019-05-29T12:17:40.402Z,20.66
2019-05-29T12:20:26.465Z,20.90
2019-05-29T12:22:39.443Z,20.83
2019-05-29T12:25:07.991Z,20.77
2019-05-29T12:27:36.450Z,20.75
2019-05-29T12:30:06.501Z,20.88
2019-05-29T12:32:34.963Z,21.31
2019-05-29T12:35:03.729Z,21.17
2019-05-29T12:37:32.265Z,21.21
2019-05-29T12:40:01.894Z,21.40
2019-05-29T12:42:30.485Z,21.52
2019-05-29T12:44:59.573Z,21.23
2019-05-29T12:47:28.223Z,21.28
2019-05-29T12:49:57.658Z,21.51
2019-05-29T12:52:26.360Z,21.57
2019-05-29T12:54:55.858Z,21.73
2019-05-29T12:57:24.544Z,21.53
2019-05-29T12:59:57.986Z,21.73
2019-05-29T13:02:26.700Z,21.95
2019-05-29T13:05:19.291Z,21.59
2019-05-29T13:07:25.420Z,21.11
2019-05-29T13:09:54.297Z,21.34
2019-05-29T13:12:22.858Z,21.50
2019-05-29T13:14:51.368Z,21.52
2019-05-29T13:17:19.817Z,21.40
2019-05-29T13:19:48.351Z,21.54
2019-05-29T13:22:16.859Z,21.62
2019-05-29T13:24:45.313Z,21.42
2019-05-29T13:27:13.774Z,21.65
2019-05-29T13:29:42.248Z,21.89
2019-05-29T13:32:10.749Z,21.85
2019-05-29T13:34:39.210Z,21.59
2019-05-29T13:37:09.687Z,21.45
2019-05-29T13:39:38.096Z,20.83
2019-05-29T13:42:11.283Z,20.86
2019-05-29T13:44:36.836Z,21.00
2019-05-29T13:47:06.242Z,21.37
2019-05-29T13:49:34.827Z,21.34
2019-05-29T13:52:08.249Z,21.69
2019-05-29T13:54:33.557Z,21.92
2019-05-29T13:57:02.746Z,22.02
2019-05-29T13:59:32.305Z,21.93
2019-05-29T14:02:04.164Z,21.68
2019-05-29T14:04:30.966Z,21.90
2019-05-29T14:07:00.360Z,22.11
2019-05-29T14:09:28.882Z,21.92
2019-05-29T14:11:58.853Z,21.73
2019-05-29T14:14:47.152Z,21.85
2019-05-29T14:17:15.621Z,22.03
2019-05-29T14:19:44.161Z,22.36
2019-05-29T14:22:14.622Z,22.17
2019-05-29T14:24:42.821Z,22.14
2019-05-29T14:27:12.721Z,22.54
2019-05-29T14:29:41.389Z,22.92
2019-05-29T14:32:29.412Z,23.10
2019-05-29T14:35:11.151Z,23.28
2019-05-29T14:37:39.807Z,23.26
2019-05-29T14:40:09.714Z,23.44
2019-05-29T14:42:38.364Z,23.52
2019-05-29T14:45:08.355Z,23.09
2019-05-29T14:47:36.055Z,22.58
2019-05-29T14:50:04.234Z,22.40
2019-05-29T14:52:32.073Z,22.77
2019-05-29T14:54:59.720Z,22.80
2019-05-29T14:57:27.381Z,23.10
2019-05-29T14:59:55.886Z,23.27
2019-05-29T15:02:24.292Z,23.87
2019-05-29T15:04:52.386Z,23.83
2019-05-29T15:07:22.781Z,23.88
2019-05-29T15:09:50.640Z,23.85
2019-05-29T15:12:18.373Z,23.79
2019-05-29T15:14:46.041Z,23.45
2019-05-29T15:17:15.390Z,23.94
2019-05-29T15:19:44.177Z,23.86
2019-05-29T15:22:14.217Z,24.04
2019-05-29T15:24:59.811Z,23.79
2019-05-29T15:27:12.321Z,23.75
2019-05-29T15:29:40.823Z,24.39
2019-05-29T15:32:10.360Z,25.14
2019-05-29T15:34:38.101Z,24.61
2019-05-29T15:37:10.242Z,24.02
2019-05-29T15:39:36.792Z,24.35
2019-05-29T15:42:06.707Z,24.24
2019-05-29T15:44:34.585Z,24.44
2019-05-29T15:47:02.227Z,23.76
2019-05-29T15:49:30.385Z,23.22
2019-05-29T15:51:58.088Z,23.28
2019-05-29T15:54:26.577Z,23.44
2019-05-29T15:56:55.050Z,23.16
2019-05-29T15:59:23.521Z,22.68
2019-05-29T16:01:52.310Z,22.44
2019-05-29T16:04:20.781Z,22.17
2019-05-29T16:06:49.262Z,22.07
2019-05-29T16:09:18.725Z,22.61
2019-05-29T16:11:47.406Z,22.63
2019-05-29T16:14:16.799Z,23.38
2019-05-29T16:16:45.634Z,23.88
2019-05-29T16:19:14.153Z,23.71
2019-05-29T16:21:42.765Z,23.30
2019-05-29T16:24:12.619Z,22.62
2019-05-29T16:26:41.240Z,22.37
2019-05-29T16:29:10.449Z,22.52
2019-05-29T16:31:39.093Z,22.87
2019-05-29T16:34:07.671Z,22.71
2019-05-29T16:36:36.240Z,22.56
2019-05-29T16:39:06.469Z,22.08
2019-05-29T16:41:34.944Z,21.70
2019-05-29T16:44:03.435Z,21.53
2019-05-29T16:46:31.911Z,21.39
2019-05-29T16:49:00.398Z,21.63
2019-05-29T16:51:48.194Z,21.55
2019-05-29T16:54:17.176Z,21.15
2019-05-29T16:56:45.735Z,21.16
2019-05-29T16:59:14.908Z,20.93
2019-05-29T17:01:43.499Z,20.86
2019-05-29T17:04:11.987Z,20.81
2019-05-29T17:06:40.456Z,20.85
2019-05-29T17:09:09.575Z,20.65
2019-05-29T17:11:38.110Z,20.83
2019-05-29T17:14:06.577Z,20.17
2019-05-29T17:16:35.069Z,20.01
2019-05-29T17:19:03.542Z,20.01
2019-05-29T17:21:32.045Z,20.03
2019-05-29T17:24:00.526Z,19.88
2019-05-29T17:26:29.039Z,19.51
2019-05-29T17:28:57.509Z,19.11
2019-05-29T17:31:25.987Z,18.96
2019-05-29T17:33:54.796Z,18.86
2019-05-29T17:36:26.739Z,18.86
2019-05-29T17:38:53.531Z,18.34
2019-05-29T17:41:25.331Z,18.37
2019-05-29T17:43:54.001Z,18.06
2019-05-29T17:46:23.790Z,18.08
2019-05-29T17:48:52.468Z,18.03
2019-05-29T17:51:21.859Z,17.92
2019-05-29T17:53:50.474Z,17.72
2019-05-29T17:56:33.602Z,17.78
2019-05-29T17:58:49.212Z,17.59
2019-05-29T18:01:18.229Z,17.50
2019-05-29T18:03:46.849Z,17.49
2019-05-29T18:06:16.298Z,17.56
2019-05-29T18:08:45.070Z,17.69
2019-05-29T18:11:13.610Z,17.49
2019-05-29T18:13:42.081Z,17.59
2019-05-29T18:16:10.876Z,17.35
2019-05-29T18:18:39.410Z,17.31
2019-05-29T18:21:07.938Z,17.18
2019-05-29T18:23:36.446Z,17.14
2019-05-29T18:26:05.221Z,17.18
2019-05-29T18:28:33.738Z,17.21
2019-05-29T18:31:04.077Z,17.01
2019-05-29T18:33:32.545Z,16.99
2019-05-29T18:36:01.037Z,16.84
2019-05-29T18:38:29.554Z,16.91
2019-05-29T18:40:58.105Z,17.07
2019-05-29T18:43:26.709Z,16.91
2019-05-29T18:45:55.285Z,16.91
2019-05-29T18:48:23.739Z,16.89
2019-05-29T18:50:52.353Z,16.63
2019-05-29T18:53:20.856Z,16.51
2019-05-29T18:55:49.353Z,16.41
2019-05-29T18:58:17.845Z,16.25
2019-05-29T19:00:46.349Z,16.22
2019-05-29T19:03:14.865Z,16.17
2019-05-29T19:05:43.728Z,16.22
2019-05-29T19:08:12.222Z,16.35
2019-05-29T19:10:40.705Z,16.71
2019-05-29T19:13:09.184Z,16.69
2019-05-29T19:15:37.649Z,16.48
2019-05-29T19:18:06.145Z,16.27
2019-05-29T19:20:34.617Z,16.22
2019-05-29T19:23:03.106Z,16.35
2019-05-29T19:25:32.930Z,16.36
2019-05-29T19:28:01.550Z,16.34
2019-05-29T19:30:32.950Z,16.18
2019-05-29T19:33:01.618Z,16.14
2019-05-29T19:35:30.116Z,16.02
2019-05-29T19:37:58.588Z,16.13
2019-05-29T19:40:28.105Z,16.18
2019-05-29T19:42:56.645Z,16.25
2019-05-29T19:45:26.446Z,16.26
2019-05-29T19:47:55.215Z,16.31
2019-05-29T19:50:24.657Z,16.39
2019-05-29T19:52:53.216Z,16.39
2019-05-29T19:55:21.823Z,16.27
2019-05-29T19:57:55.852Z,16.37
2019-05-29T20:00:20.487Z,16.26
2019-05-29T20:02:49.254Z,16.33
2019-05-29T20:05:17.773Z,16.35
2019-05-29T20:07:46.268Z,16.16
2019-05-29T20:10:14.748Z,16.22
2019-05-29T20:12:43.254Z,16.13
2019-05-29T20:15:11.817Z,16.22
2019-05-29T20:17:40.294Z,16.19
2019-05-29T20:20:08.782Z,16.11
2019-05-29T20:22:37.285Z,16.24
2019-05-29T20:25:05.989Z,16.17
2019-05-29T20:27:34.488Z,16.24
2019-05-29T20:30:04.676Z,16.31
2019-05-29T20:32:34.555Z,16.22
2019-05-29T20:35:03.512Z,16.11
2019-05-29T20:37:32.278Z,16.22
2019-05-29T20:40:00.823Z,16.02
2019-05-29T20:42:30.103Z,16.20
2019-05-29T20:44:58.777Z,16.25
2019-05-29T20:47:27.276Z,16.04
2019-05-29T20:49:55.929Z,16.16
2019-05-29T20:52:43.850Z,16.01
2019-05-29T20:55:12.398Z,16.06
2019-05-29T20:57:42.067Z,16.00
2019-05-29T21:00:11.062Z,16.03
2019-05-29T21:02:40.449Z,16.08
2019-05-29T21:05:09.264Z,15.97
2019-05-29T21:07:38.836Z,16.14
2019-05-29T21:10:07.435Z,16.10
2019-05-29T21:12:37.029Z,16.10
2019-05-29T21:15:06.094Z,15.99
2019-05-29T21:17:35.636Z,15.97
2019-05-29T21:20:04.648Z,15.88
2019-05-29T21:22:34.422Z,15.82
2019-05-29T21:25:07.794Z,15.96
2019-05-29T21:27:33.312Z,15.99
2019-05-29T21:30:01.890Z,15.84
2019-05-29T21:34:47.544Z,15.90
2019-05-29T21:37:16.070Z,15.95
2019-05-29T21:39:44.675Z,15.89
2019-05-29T21:42:13.141Z,16.01
2019-05-29T21:44:42.766Z,16.08
2019-05-29T21:47:11.820Z,16.05
2019-05-29T21:49:41.004Z,16.11
2019-05-29T21:52:09.653Z,16.11
2019-05-29T21:54:39.334Z,15.97
2019-05-29T21:57:07.950Z,16.13
2019-05-29T21:59:37.597Z,16.07
2019-05-29T22:02:06.675Z,16.08
2019-05-29T22:04:35.480Z,16.01
2019-05-29T22:07:04.131Z,15.92
2019-05-29T22:09:32.617Z,15.82
2019-05-29T22:12:01.093Z,15.88
2019-05-29T22:14:29.576Z,15.91
2019-05-29T22:16:59.136Z,15.88
2019-05-29T22:19:27.857Z,15.80
2019-05-29T22:21:57.095Z,15.83
2019-05-29T22:24:25.679Z,15.78
2019-05-29T22:26:55.189Z,15.74
2019-05-29T22:29:23.764Z,15.67
2019-05-29T22:31:53.333Z,15.62
2019-05-29T22:34:22.011Z,15.69
2019-05-29T22:36:51.430Z,15.62
2019-05-29T22:39:20.135Z,15.76
2019-05-29T22:41:48.618Z,15.83
2019-05-29T22:44:17.080Z,15.90
2019-05-29T22:46:45.546Z,15.86
2019-05-29T22:49:14.035Z,15.92
2019-05-29T22:51:42.493Z,15.89
2019-05-29T22:54:11.381Z,15.80
2019-05-29T22:56:39.862Z,15.67
2019-05-29T22:59:08.363Z,15.58
2019-05-29T23:01:56.421Z,15.40
2019-05-29T23:04:25.067Z,15.33
2019-05-29T23:06:54.192Z,15.15
2019-05-29T23:09:22.750Z,15.16
2019-05-29T23:11:52.160Z,15.04
2019-05-29T23:14:20.767Z,15.00
2019-05-29T23:16:49.242Z,15.06
2019-05-29T23:19:17.723Z,14.98
2019-05-29T23:21:46.185Z,14.96
2019-05-29T23:24:14.638Z,14.85
2019-05-29T23:26:43.121Z,14.84
2019-05-29T23:29:11.614Z,14.77
2019-05-29T23:31:40.097Z,14.66
2019-05-29T23:34:08.554Z,14.82
2019-05-29T23:36:57.108Z,14.68
2019-05-29T23:39:25.827Z,14.85
2019-05-29T23:41:57.057Z,14.79
2019-05-29T23:44:25.872Z,14.84
2019-05-29T23:46:55.347Z,14.71
2019-05-29T23:49:23.959Z,14.59
2019-05-29T23:51:53.543Z,14.55
2019-05-29T23:54:22.304Z,14.56
2019-05-29T23:56:53.769Z,14.65
2019-05-29T23:59:22.437Z,14.54
